sensor_id;sensor_type;location;lat;lon;timestamp;P1;durP1;ratioP1;P2;durP2;ratioP2
59950;SDS011;45812;53.540;9.774;2023-05-10T00:00:54;2.72;;;2.30;;
59950;SDS011;45812;53.540;9.774;2023-05-10T00:03:20;8.07;;;3.33;;
59950;SDS011;45812;53.540;9.774;2023-05-10T00:05:45;8.93;;;4.25;;
59950;SDS011;45812;53.540;9.774;2023-05-10T00:08:10;6.70;;;2.90;;
59950;SDS011;45812;53.540;9.774;2023-05-10T00:10:35;3.65;;;2.80;;
59950;SDS011;45812;53.540;9.774;2023-05-10T00:13:02;6.07;;;3.05;;
59950;SDS011;45812;53.540;9.774;2023-05-10T00:15:27;6.07;;;3.35;;
59950;SDS011;45812;53.540;9.774;2023-05-10T00:17:53;5.93;;;2.95;;
59950;SDS011;45812;53.540;9.774;2023-05-10T00:20:18;4.65;;;2.80;;
59950;SDS011;45812;53.540;9.774;2023-05-10T00:22:43;4.47;;;2.85;;
59950;SDS011;45812;53.540;9.774;2023-05-10T00:25:08;6.00;;;3.00;;
59950;SDS011;45812;53.540;9.774;2023-05-10T00:27:34;6.43;;;3.15;;
59950;SDS011;45812;53.540;9.774;2023-05-10T00:29:59;4.97;;;3.38;;
59950;SDS011;45812;53.540;9.774;2023-05-10T00:32:24;3.30;;;3.00;;
59950;SDS011;45812;53.540;9.774;2023-05-10T00:34:50;3.53;;;2.90;;
59950;SDS011;45812;53.540;9.774;2023-05-10T00:37:15;4.90;;;2.90;;
59950;SDS011;45812;53.540;9.774;2023-05-10T00:39:41;8.52;;;3.67;;
59950;SDS011;45812;53.540;9.774;2023-05-10T00:42:06;6.67;;;3.10;;
59950;SDS011;45812;53.540;9.774;2023-05-10T00:44:31;3.60;;;3.10;;
59950;SDS011;45812;53.540;9.774;2023-05-10T00:46:57;6.67;;;3.10;;
59950;SDS011;45812;53.540;9.774;2023-05-10T00:49:24;4.95;;;3.00;;
59950;SDS011;45812;53.540;9.774;2023-05-10T00:51:49;4.63;;;2.55;;
59950;SDS011;45812;53.540;9.774;2023-05-10T00:54:15;6.55;;;3.50;;
59950;SDS011;45812;53.540;9.774;2023-05-10T00:56:40;8.38;;;3.30;;
59950;SDS011;45812;53.540;9.774;2023-05-10T00:59:07;8.02;;;3.65;;
59950;SDS011;45812;53.540;9.774;2023-05-10T01:01:35;5.88;;;3.58;;
59950;SDS011;45812;53.540;9.774;2023-05-10T01:04:01;11.65;;;3.72;;
59950;SDS011;45812;53.540;9.774;2023-05-10T01:06:27;6.80;;;3.42;;
59950;SDS011;45812;53.540;9.774;2023-05-10T01:08:53;9.43;;;3.60;;
59950;SDS011;45812;53.540;9.774;2023-05-10T01:11:19;4.95;;;3.17;;
59950;SDS011;45812;53.540;9.774;2023-05-10T01:13:44;5.03;;;3.60;;
59950;SDS011;45812;53.540;9.774;2023-05-10T01:16:15;6.43;;;3.28;;
59950;SDS011;45812;53.540;9.774;2023-05-10T01:18:41;5.25;;;3.20;;
59950;SDS011;45812;53.540;9.774;2023-05-10T01:23:56;7.45;;;3.63;;
59950;SDS011;45812;53.540;9.774;2023-05-10T01:32:16;7.43;;;3.53;;
59950;SDS011;45812;53.540;9.774;2023-05-10T01:35:07;5.57;;;3.13;;
59950;SDS011;45812;53.540;9.774;2023-05-10T01:37:42;5.55;;;3.67;;
59950;SDS011;45812;53.540;9.774;2023-05-10T01:40:26;7.47;;;3.97;;
59950;SDS011;45812;53.540;9.774;2023-05-10T01:43:00;5.47;;;3.60;;
59950;SDS011;45812;53.540;9.774;2023-05-10T01:45:31;7.45;;;3.80;;
59950;SDS011;45812;53.540;9.774;2023-05-10T01:48:03;5.45;;;3.15;;
59950;SDS011;45812;53.540;9.774;2023-05-10T01:50:32;11.00;;;3.70;;
59950;SDS011;45812;53.540;9.774;2023-05-10T01:53:00;6.00;;;3.58;;
59950;SDS011;45812;53.540;9.774;2023-05-10T01:55:28;4.40;;;3.28;;
59950;SDS011;45812;53.540;9.774;2023-05-10T01:58:07;5.88;;;3.83;;
59950;SDS011;45812;53.540;9.774;2023-05-10T02:00:35;7.70;;;3.50;;
59950;SDS011;45812;53.540;9.774;2023-05-10T02:03:01;4.85;;;3.35;;
59950;SDS011;45812;53.540;9.774;2023-05-10T02:05:30;5.03;;;3.60;;
59950;SDS011;45812;53.540;9.774;2023-05-10T02:07:58;9.57;;;3.88;;
59950;SDS011;45812;53.540;9.774;2023-05-10T02:10:25;8.30;;;4.18;;
59950;SDS011;45812;53.540;9.774;2023-05-10T02:12:51;13.07;;;3.75;;
59950;SDS011;45812;53.540;9.774;2023-05-10T02:15:19;8.77;;;3.65;;
59950;SDS011;45812;53.540;9.774;2023-05-10T02:17:49;4.60;;;3.53;;
59950;SDS011;45812;53.540;9.774;2023-05-10T02:20:17;7.88;;;3.90;;
59950;SDS011;45812;53.540;9.774;2023-05-10T02:22:45;7.03;;;3.70;;
59950;SDS011;45812;53.540;9.774;2023-05-10T02:25:14;8.15;;;3.67;;
59950;SDS011;45812;53.540;9.774;2023-05-10T02:27:40;7.70;;;3.33;;
59950;SDS011;45812;53.540;9.774;2023-05-10T02:30:07;8.13;;;4.30;;
59950;SDS011;45812;53.540;9.774;2023-05-10T02:32:34;7.38;;;3.83;;
59950;SDS011;45812;53.540;9.774;2023-05-10T02:35:00;9.23;;;4.35;;
59950;SDS011;45812;53.540;9.774;2023-05-10T02:37:27;5.35;;;3.55;;
59950;SDS011;45812;53.540;9.774;2023-05-10T02:39:53;5.88;;;3.78;;
59950;SDS011;45812;53.540;9.774;2023-05-10T02:42:22;6.47;;;3.30;;
59950;SDS011;45812;53.540;9.774;2023-05-10T02:44:50;5.53;;;3.65;;
59950;SDS011;45812;53.540;9.774;2023-05-10T02:47:18;8.77;;;3.47;;
59950;SDS011;45812;53.540;9.774;2023-05-10T02:49:44;6.32;;;3.40;;
59950;SDS011;45812;53.540;9.774;2023-05-10T02:52:10;7.18;;;3.65;;
59950;SDS011;45812;53.540;9.774;2023-05-10T02:54:43;8.23;;;4.28;;
59950;SDS011;45812;53.540;9.774;2023-05-10T02:57:11;6.47;;;3.53;;
59950;SDS011;45812;53.540;9.774;2023-05-10T02:59:40;8.25;;;4.22;;
59950;SDS011;45812;53.540;9.774;2023-05-10T03:02:07;4.50;;;3.40;;
59950;SDS011;45812;53.540;9.774;2023-05-10T03:04:34;6.88;;;3.80;;
59950;SDS011;45812;53.540;9.774;2023-05-10T03:06:59;9.00;;;3.90;;
59950;SDS011;45812;53.540;9.774;2023-05-10T03:09:25;7.10;;;3.63;;
59950;SDS011;45812;53.540;9.774;2023-05-10T03:11:55;9.35;;;4.30;;
59950;SDS011;45812;53.540;9.774;2023-05-10T03:17:25;5.13;;;3.50;;
59950;SDS011;45812;53.540;9.774;2023-05-10T03:20:42;7.18;;;3.60;;
59950;SDS011;45812;53.540;9.774;2023-05-10T03:22:55;5.22;;;3.50;;
59950;SDS011;45812;53.540;9.774;2023-05-10T03:25:27;10.85;;;4.70;;
59950;SDS011;45812;53.540;9.774;2023-05-10T03:27:54;5.03;;;3.60;;
59950;SDS011;45812;53.540;9.774;2023-05-10T03:30:22;5.07;;;3.75;;
59950;SDS011;45812;53.540;9.774;2023-05-10T03:32:47;7.15;;;3.72;;
59950;SDS011;45812;53.540;9.774;2023-05-10T03:35:12;4.72;;;4.20;;
59950;SDS011;45812;53.540;9.774;2023-05-10T03:37:39;5.45;;;3.95;;
59950;SDS011;45812;53.540;9.774;2023-05-10T03:40:04;7.53;;;4.38;;
59950;SDS011;45812;53.540;9.774;2023-05-10T03:42:31;7.35;;;3.90;;
59950;SDS011;45812;53.540;9.774;2023-05-10T03:44:57;10.25;;;3.75;;
59950;SDS011;45812;53.540;9.774;2023-05-10T03:47:22;9.13;;;4.15;;
59950;SDS011;45812;53.540;9.774;2023-05-10T03:49:47;5.07;;;4.32;;
59950;SDS011;45812;53.540;9.774;2023-05-10T03:52:13;9.57;;;3.70;;
59950;SDS011;45812;53.540;9.774;2023-05-10T03:54:38;10.05;;;3.97;;
59950;SDS011;45812;53.540;9.774;2023-05-10T03:57:04;7.75;;;4.32;;
59950;SDS011;45812;53.540;9.774;2023-05-10T03:59:29;5.10;;;3.80;;
59950;SDS011;45812;53.540;9.774;2023-05-10T04:01:55;8.13;;;3.97;;
59950;SDS011;45812;53.540;9.774;2023-05-10T04:04:20;8.68;;;4.07;;
59950;SDS011;45812;53.540;9.774;2023-05-10T04:06:46;6.00;;;3.80;;
59950;SDS011;45812;53.540;9.774;2023-05-10T04:09:12;6.47;;;3.47;;
59950;SDS011;45812;53.540;9.774;2023-05-10T04:11:37;5.65;;;3.97;;
59950;SDS011;45812;53.540;9.774;2023-05-10T04:14:04;5.80;;;3.75;;
59950;SDS011;45812;53.540;9.774;2023-05-10T04:16:29;4.70;;;3.47;;
59950;SDS011;45812;53.540;9.774;2023-05-10T04:18:54;7.35;;;3.80;;
59950;SDS011;45812;53.540;9.774;2023-05-10T04:21:19;4.73;;;3.80;;
59950;SDS011;45812;53.540;9.774;2023-05-10T04:23:45;9.67;;;4.00;;
59950;SDS011;45812;53.540;9.774;2023-05-10T04:26:10;8.95;;;4.13;;
59950;SDS011;45812;53.540;9.774;2023-05-10T04:28:35;6.32;;;3.63;;
59950;SDS011;45812;53.540;9.774;2023-05-10T04:31:01;6.00;;;3.85;;
59950;SDS011;45812;53.540;9.774;2023-05-10T04:33:34;7.22;;;3.78;;
59950;SDS011;45812;53.540;9.774;2023-05-10T04:36:00;5.53;;;3.97;;
59950;SDS011;45812;53.540;9.774;2023-05-10T04:38:25;8.23;;;3.85;;
59950;SDS011;45812;53.540;9.774;2023-05-10T04:40:51;7.97;;;3.75;;
59950;SDS011;45812;53.540;9.774;2023-05-10T04:43:17;5.13;;;3.85;;
59950;SDS011;45812;53.540;9.774;2023-05-10T04:45:42;6.57;;;3.42;;
59950;SDS011;45812;53.540;9.774;2023-05-10T04:48:07;9.73;;;4.17;;
59950;SDS011;45812;53.540;9.774;2023-05-10T04:50:32;12.03;;;3.90;;
59950;SDS011;45812;53.540;9.774;2023-05-10T04:52:58;7.65;;;3.53;;
59950;SDS011;45812;53.540;9.774;2023-05-10T04:55:23;6.05;;;4.10;;
59950;SDS011;45812;53.540;9.774;2023-05-10T04:57:48;11.10;;;4.05;;
59950;SDS011;45812;53.540;9.774;2023-05-10T05:00:14;6.47;;;3.65;;
59950;SDS011;45812;53.540;9.774;2023-05-10T05:02:43;7.55;;;4.00;;
59950;SDS011;45812;53.540;9.774;2023-05-10T05:05:10;7.07;;;3.90;;
59950;SDS011;45812;53.540;9.774;2023-05-10T05:07:35;7.28;;;4.95;;
59950;SDS011;45812;53.540;9.774;2023-05-10T05:10:00;5.72;;;3.80;;
59950;SDS011;45812;53.540;9.774;2023-05-10T05:12:26;5.37;;;3.80;;
59950;SDS011;45812;53.540;9.774;2023-05-10T05:14:51;9.27;;;3.50;;
59950;SDS011;45812;53.540;9.774;2023-05-10T05:17:16;6.53;;;4.23;;
59950;SDS011;45812;53.540;9.774;2023-05-10T05:19:41;7.20;;;5.40;;
59950;SDS011;45812;53.540;9.774;2023-05-10T05:22:06;13.87;;;7.70;;
59950;SDS011;45812;53.540;9.774;2023-05-10T05:24:36;9.75;;;5.40;;
59950;SDS011;45812;53.540;9.774;2023-05-10T05:27:04;5.30;;;4.20;;
59950;SDS011;45812;53.540;9.774;2023-05-10T05:29:30;6.95;;;4.45;;
59950;SDS011;45812;53.540;9.774;2023-05-10T05:31:56;6.80;;;4.45;;
59950;SDS011;45812;53.540;9.774;2023-05-10T05:34:21;7.23;;;3.90;;
59950;SDS011;45812;53.540;9.774;2023-05-10T05:36:47;10.90;;;5.00;;
59950;SDS011;45812;53.540;9.774;2023-05-10T05:39:12;5.40;;;3.72;;
59950;SDS011;45812;53.540;9.774;2023-05-10T05:41:37;5.10;;;3.78;;
59950;SDS011;45812;53.540;9.774;2023-05-10T05:44:03;12.35;;;4.70;;
59950;SDS011;45812;53.540;9.774;2023-05-10T05:46:28;6.75;;;4.00;;
59950;SDS011;45812;53.540;9.774;2023-05-10T05:48:53;5.78;;;3.75;;
59950;SDS011;45812;53.540;9.774;2023-05-10T05:51:19;8.48;;;3.83;;
59950;SDS011;45812;53.540;9.774;2023-05-10T05:53:44;10.52;;;4.28;;
59950;SDS011;45812;53.540;9.774;2023-05-10T05:56:09;13.15;;;4.28;;
59950;SDS011;45812;53.540;9.774;2023-05-10T05:58:34;9.65;;;4.13;;
59950;SDS011;45812;53.540;9.774;2023-05-10T06:01:00;8.77;;;3.97;;
59950;SDS011;45812;53.540;9.774;2023-05-10T06:03:25;7.90;;;4.20;;
59950;SDS011;45812;53.540;9.774;2023-05-10T06:05:50;7.72;;;4.05;;
59950;SDS011;45812;53.540;9.774;2023-05-10T06:08:16;4.83;;;3.63;;
59950;SDS011;45812;53.540;9.774;2023-05-10T06:10:41;8.73;;;4.75;;
59950;SDS011;45812;53.540;9.774;2023-05-10T06:13:06;8.17;;;4.00;;
59950;SDS011;45812;53.540;9.774;2023-05-10T06:15:31;9.38;;;3.90;;
59950;SDS011;45812;53.540;9.774;2023-05-10T06:17:57;10.75;;;4.00;;
59950;SDS011;45812;53.540;9.774;2023-05-10T06:20:22;9.23;;;3.78;;
59950;SDS011;45812;53.540;9.774;2023-05-10T06:22:48;6.22;;;3.63;;
59950;SDS011;45812;53.540;9.774;2023-05-10T06:25:13;8.32;;;3.85;;
59950;SDS011;45812;53.540;9.774;2023-05-10T06:27:39;6.15;;;4.07;;
59950;SDS011;45812;53.540;9.774;2023-05-10T06:30:05;6.38;;;3.40;;
59950;SDS011;45812;53.540;9.774;2023-05-10T06:32:31;9.63;;;4.28;;
59950;SDS011;45812;53.540;9.774;2023-05-10T06:34:56;6.65;;;3.63;;
59950;SDS011;45812;53.540;9.774;2023-05-10T06:37:21;9.30;;;3.93;;
59950;SDS011;45812;53.540;9.774;2023-05-10T06:39:46;6.00;;;3.67;;
59950;SDS011;45812;53.540;9.774;2023-05-10T06:42:12;6.90;;;4.83;;
59950;SDS011;45812;53.540;9.774;2023-05-10T06:44:37;6.97;;;4.17;;
59950;SDS011;45812;53.540;9.774;2023-05-10T06:47:02;8.27;;;4.35;;
59950;SDS011;45812;53.540;9.774;2023-05-10T06:49:27;14.35;;;4.20;;
59950;SDS011;45812;53.540;9.774;2023-05-10T06:51:53;6.75;;;3.72;;
59950;SDS011;45812;53.540;9.774;2023-05-10T06:54:18;5.47;;;3.53;;
59950;SDS011;45812;53.540;9.774;2023-05-10T06:56:44;7.55;;;3.72;;
59950;SDS011;45812;53.540;9.774;2023-05-10T06:59:09;7.17;;;3.87;;
59950;SDS011;45812;53.540;9.774;2023-05-10T07:01:34;4.75;;;3.63;;
59950;SDS011;45812;53.540;9.774;2023-05-10T07:04:00;4.80;;;3.72;;
59950;SDS011;45812;53.540;9.774;2023-05-10T07:06:25;7.07;;;3.53;;
59950;SDS011;45812;53.540;9.774;2023-05-10T07:08:50;6.10;;;3.47;;
59950;SDS011;45812;53.540;9.774;2023-05-10T07:11:15;9.77;;;4.27;;
59950;SDS011;45812;53.540;9.774;2023-05-10T07:13:41;5.30;;;3.70;;
59950;SDS011;45812;53.540;9.774;2023-05-10T07:16:08;5.32;;;3.38;;
59950;SDS011;45812;53.540;9.774;2023-05-10T07:18:34;5.05;;;3.28;;
59950;SDS011;45812;53.540;9.774;2023-05-10T07:21:00;7.00;;;3.40;;
59950;SDS011;45812;53.540;9.774;2023-05-10T07:23:25;6.80;;;3.67;;
59950;SDS011;45812;53.540;9.774;2023-05-10T07:25:51;7.80;;;3.97;;
59950;SDS011;45812;53.540;9.774;2023-05-10T07:28:17;9.15;;;3.95;;
59950;SDS011;45812;53.540;9.774;2023-05-10T07:30:43;5.57;;;3.97;;
59950;SDS011;45812;53.540;9.774;2023-05-10T07:33:09;5.40;;;4.05;;
59950;SDS011;45812;53.540;9.774;2023-05-10T07:35:36;7.45;;;3.70;;
59950;SDS011;45812;53.540;9.774;2023-05-10T07:38:01;6.18;;;3.78;;
59950;SDS011;45812;53.540;9.774;2023-05-10T07:40:27;11.55;;;3.83;;
59950;SDS011;45812;53.540;9.774;2023-05-10T07:42:53;7.47;;;3.65;;
59950;SDS011;45812;53.540;9.774;2023-05-10T07:45:18;4.07;;;3.50;;
59950;SDS011;45812;53.540;9.774;2023-05-10T07:47:43;5.67;;;3.57;;
59950;SDS011;45812;53.540;9.774;2023-05-10T07:50:08;5.50;;;3.85;;
59950;SDS011;45812;53.540;9.774;2023-05-10T07:52:34;8.95;;;3.47;;
59950;SDS011;45812;53.540;9.774;2023-05-10T07:54:59;9.35;;;3.75;;
59950;SDS011;45812;53.540;9.774;2023-05-10T07:57:24;7.20;;;4.23;;
59950;SDS011;45812;53.540;9.774;2023-05-10T07:59:49;7.60;;;3.40;;
59950;SDS011;45812;53.540;9.774;2023-05-10T08:02:15;5.85;;;3.80;;
59950;SDS011;45812;53.540;9.774;2023-05-10T08:04:40;4.50;;;3.67;;
59950;SDS011;45812;53.540;9.774;2023-05-10T08:07:05;5.03;;;3.50;;
59950;SDS011;45812;53.540;9.774;2023-05-10T08:09:31;6.97;;;3.80;;
59950;SDS011;45812;53.540;9.774;2023-05-10T08:11:56;6.83;;;4.00;;
59950;SDS011;45812;53.540;9.774;2023-05-10T08:14:21;7.55;;;4.18;;
59950;SDS011;45812;53.540;9.774;2023-05-10T08:16:46;7.00;;;3.72;;
59950;SDS011;45812;53.540;9.774;2023-05-10T08:19:12;6.65;;;3.97;;
59950;SDS011;45812;53.540;9.774;2023-05-10T08:21:37;6.25;;;4.05;;
59950;SDS011;45812;53.540;9.774;2023-05-10T08:24:02;6.47;;;3.92;;
59950;SDS011;45812;53.540;9.774;2023-05-10T08:26:28;5.43;;;4.20;;
59950;SDS011;45812;53.540;9.774;2023-05-10T08:28:53;6.03;;;4.13;;
59950;SDS011;45812;53.540;9.774;2023-05-10T08:31:18;9.73;;;3.83;;
59950;SDS011;45812;53.540;9.774;2023-05-10T08:33:43;7.68;;;3.95;;
59950;SDS011;45812;53.540;9.774;2023-05-10T08:36:09;8.05;;;4.45;;
59950;SDS011;45812;53.540;9.774;2023-05-10T08:38:34;7.30;;;4.00;;
59950;SDS011;45812;53.540;9.774;2023-05-10T08:40:59;8.15;;;4.50;;
59950;SDS011;45812;53.540;9.774;2023-05-10T08:43:27;6.45;;;4.15;;
59950;SDS011;45812;53.540;9.774;2023-05-10T08:45:54;6.82;;;4.25;;
59950;SDS011;45812;53.540;9.774;2023-05-10T08:48:21;13.73;;;4.53;;
59950;SDS011;45812;53.540;9.774;2023-05-10T08:50:48;10.57;;;4.65;;
59950;SDS011;45812;53.540;9.774;2023-05-10T08:53:15;7.22;;;4.03;;
59950;SDS011;45812;53.540;9.774;2023-05-10T08:55:41;8.82;;;4.57;;
59950;SDS011;45812;53.540;9.774;2023-05-10T08:58:07;8.82;;;4.38;;
59950;SDS011;45812;53.540;9.774;2023-05-10T09:00:34;10.15;;;4.47;;
59950;SDS011;45812;53.540;9.774;2023-05-10T09:03:00;9.68;;;3.78;;
59950;SDS011;45812;53.540;9.774;2023-05-10T09:05:26;7.95;;;4.30;;
59950;SDS011;45812;53.540;9.774;2023-05-10T09:07:51;11.50;;;4.88;;
59950;SDS011;45812;53.540;9.774;2023-05-10T09:10:18;7.20;;;4.78;;
59950;SDS011;45812;53.540;9.774;2023-05-10T09:12:44;8.15;;;4.72;;
59950;SDS011;45812;53.540;9.774;2023-05-10T09:15:10;8.15;;;4.80;;
59950;SDS011;45812;53.540;9.774;2023-05-10T09:17:36;14.70;;;5.28;;
59950;SDS011;45812;53.540;9.774;2023-05-10T09:20:03;8.63;;;4.50;;
59950;SDS011;45812;53.540;9.774;2023-05-10T09:22:29;8.55;;;4.80;;
59950;SDS011;45812;53.540;9.774;2023-05-10T09:25:08;9.85;;;5.22;;
59950;SDS011;45812;53.540;9.774;2023-05-10T09:27:35;6.90;;;4.85;;
59950;SDS011;45812;53.540;9.774;2023-05-10T09:30:01;10.48;;;5.10;;
59950;SDS011;45812;53.540;9.774;2023-05-10T09:32:37;13.40;;;5.50;;
59950;SDS011;45812;53.540;9.774;2023-05-10T09:35:07;13.38;;;5.97;;
59950;SDS011;45812;53.540;9.774;2023-05-10T09:37:36;11.13;;;5.13;;
59950;SDS011;45812;53.540;9.774;2023-05-10T09:40:06;8.52;;;5.25;;
59950;SDS011;45812;53.540;9.774;2023-05-10T09:42:33;8.02;;;5.10;;
59950;SDS011;45812;53.540;9.774;2023-05-10T09:45:00;8.65;;;5.22;;
59950;SDS011;45812;53.540;9.774;2023-05-10T09:47:31;9.48;;;5.20;;
59950;SDS011;45812;53.540;9.774;2023-05-10T09:49:57;12.68;;;5.57;;
59950;SDS011;45812;53.540;9.774;2023-05-10T09:52:27;8.77;;;5.45;;
59950;SDS011;45812;53.540;9.774;2023-05-10T09:54:53;10.93;;;5.70;;
59950;SDS011;45812;53.540;9.774;2023-05-10T09:57:22;8.18;;;5.40;;
59950;SDS011;45812;53.540;9.774;2023-05-10T09:59:49;9.35;;;5.70;;
59950;SDS011;45812;53.540;9.774;2023-05-10T10:02:15;7.20;;;5.25;;
59950;SDS011;45812;53.540;9.774;2023-05-10T10:04:41;8.90;;;5.78;;
59950;SDS011;45812;53.540;9.774;2023-05-10T10:07:06;11.65;;;6.38;;
59950;SDS011;45812;53.540;9.774;2023-05-10T10:09:32;9.65;;;5.90;;
59950;SDS011;45812;53.540;9.774;2023-05-10T10:11:59;7.32;;;5.35;;
59950;SDS011;45812;53.540;9.774;2023-05-10T10:14:25;11.23;;;6.28;;
59950;SDS011;45812;53.540;9.774;2023-05-10T10:16:50;9.23;;;6.00;;
59950;SDS011;45812;53.540;9.774;2023-05-10T10:19:16;8.63;;;5.70;;
59950;SDS011;45812;53.540;9.774;2023-05-10T10:21:43;10.30;;;6.07;;
59950;SDS011;45812;53.540;9.774;2023-05-10T10:24:08;11.57;;;6.20;;
59950;SDS011;45812;53.540;9.774;2023-05-10T10:26:33;11.70;;;6.20;;
59950;SDS011;45812;53.540;9.774;2023-05-10T10:29:17;11.00;;;6.43;;
59950;SDS011;45812;53.540;9.774;2023-05-10T10:31:55;14.80;;;6.55;;
59950;SDS011;45812;53.540;9.774;2023-05-10T10:34:28;10.27;;;6.00;;
59950;SDS011;45812;53.540;9.774;2023-05-10T10:36:56;11.32;;;6.25;;
59950;SDS011;45812;53.540;9.774;2023-05-10T10:39:22;12.25;;;6.45;;
59950;SDS011;45812;53.540;9.774;2023-05-10T10:41:53;9.88;;;6.40;;
59950;SDS011;45812;53.540;9.774;2023-05-10T10:52:35;13.55;;;7.32;;
59950;SDS011;45812;53.540;9.774;2023-05-10T10:55:09;11.77;;;6.55;;
59950;SDS011;45812;53.540;9.774;2023-05-10T10:57:42;15.57;;;7.47;;
59950;SDS011;45812;53.540;9.774;2023-05-10T11:00:21;12.05;;;6.82;;
59950;SDS011;45812;53.540;9.774;2023-05-10T11:02:51;10.25;;;6.30;;
59950;SDS011;45812;53.540;9.774;2023-05-10T11:08:06;13.43;;;6.97;;
59950;SDS011;45812;53.540;9.774;2023-05-10T11:10:33;13.07;;;6.93;;
59950;SDS011;45812;53.540;9.774;2023-05-10T11:13:03;11.68;;;5.88;;
59950;SDS011;45812;53.540;9.774;2023-05-10T11:15:33;12.38;;;6.35;;
59950;SDS011;45812;53.540;9.774;2023-05-10T11:18:23;9.65;;;6.68;;
59950;SDS011;45812;53.540;9.774;2023-05-10T11:20:50;10.80;;;5.95;;
59950;SDS011;45812;53.540;9.774;2023-05-10T11:23:16;15.05;;;7.45;;
59950;SDS011;45812;53.540;9.774;2023-05-10T11:25:43;11.18;;;6.90;;
59950;SDS011;45812;53.540;9.774;2023-05-10T11:28:09;11.82;;;7.05;;
59950;SDS011;45812;53.540;9.774;2023-05-10T11:30:35;11.57;;;7.30;;
59950;SDS011;45812;53.540;9.774;2023-05-10T11:33:01;13.88;;;7.65;;
59950;SDS011;45812;53.540;9.774;2023-05-10T11:35:27;15.00;;;7.25;;
59950;SDS011;45812;53.540;9.774;2023-05-10T11:37:52;13.35;;;7.53;;
59950;SDS011;45812;53.540;9.774;2023-05-10T11:40:18;11.07;;;6.87;;
59950;SDS011;45812;53.540;9.774;2023-05-10T11:42:44;11.75;;;6.97;;
59950;SDS011;45812;53.540;9.774;2023-05-10T11:45:10;13.52;;;7.32;;
59950;SDS011;45812;53.540;9.774;2023-05-10T11:47:35;12.85;;;6.90;;
59950;SDS011;45812;53.540;9.774;2023-05-10T11:50:01;12.10;;;6.80;;
59950;SDS011;45812;53.540;9.774;2023-05-10T11:52:27;10.30;;;6.13;;
59950;SDS011;45812;53.540;9.774;2023-05-10T11:54:54;10.98;;;6.30;;
59950;SDS011;45812;53.540;9.774;2023-05-10T11:57:20;8.50;;;5.40;;
59950;SDS011;45812;53.540;9.774;2023-05-10T11:59:53;8.25;;;5.63;;
59950;SDS011;45812;53.540;9.774;2023-05-10T12:02:19;11.13;;;6.15;;
59950;SDS011;45812;53.540;9.774;2023-05-10T12:04:45;10.45;;;5.72;;
59950;SDS011;45812;53.540;9.774;2023-05-10T12:07:10;10.85;;;5.63;;
59950;SDS011;45812;53.540;9.774;2023-05-10T12:09:36;8.50;;;5.38;;
59950;SDS011;45812;53.540;9.774;2023-05-10T12:12:01;8.93;;;5.68;;
59950;SDS011;45812;53.540;9.774;2023-05-10T12:14:27;9.20;;;5.80;;
59950;SDS011;45812;53.540;9.774;2023-05-10T12:16:53;10.48;;;5.78;;
59950;SDS011;45812;53.540;9.774;2023-05-10T12:19:18;6.97;;;5.40;;
59950;SDS011;45812;53.540;9.774;2023-05-10T12:21:45;8.65;;;5.53;;
59950;SDS011;45812;53.540;9.774;2023-05-10T12:24:10;6.97;;;5.13;;
59950;SDS011;45812;53.540;9.774;2023-05-10T12:26:36;7.95;;;5.15;;
59950;SDS011;45812;53.540;9.774;2023-05-10T12:29:11;8.88;;;5.28;;
59950;SDS011;45812;53.540;9.774;2023-05-10T12:31:52;9.25;;;5.20;;
59950;SDS011;45812;53.540;9.774;2023-05-10T12:34:26;6.63;;;4.53;;
59950;SDS011;45812;53.540;9.774;2023-05-10T12:36:52;6.27;;;4.47;;
59950;SDS011;45812;53.540;9.774;2023-05-10T12:39:18;9.32;;;4.60;;
59950;SDS011;45812;53.540;9.774;2023-05-10T12:41:43;5.70;;;4.27;;
59950;SDS011;45812;53.540;9.774;2023-05-10T12:44:09;6.32;;;4.43;;
59950;SDS011;45812;53.540;9.774;2023-05-10T12:46:34;7.00;;;4.80;;
59950;SDS011;45812;53.540;9.774;2023-05-10T12:48:59;6.25;;;4.55;;
59950;SDS011;45812;53.540;9.774;2023-05-10T12:51:25;8.47;;;5.03;;
59950;SDS011;45812;53.540;9.774;2023-05-10T12:53:50;9.73;;;4.30;;
59950;SDS011;45812;53.540;9.774;2023-05-10T12:56:15;8.00;;;4.60;;
59950;SDS011;45812;53.540;9.774;2023-05-10T12:58:40;7.27;;;4.80;;
59950;SDS011;45812;53.540;9.774;2023-05-10T13:01:06;5.68;;;4.78;;
59950;SDS011;45812;53.540;9.774;2023-05-10T13:03:31;6.75;;;4.68;;
59950;SDS011;45812;53.540;9.774;2023-05-10T13:05:57;7.63;;;4.28;;
59950;SDS011;45812;53.540;9.774;2023-05-10T13:08:22;7.03;;;4.63;;
59950;SDS011;45812;53.540;9.774;2023-05-10T13:10:47;8.02;;;5.38;;
59950;SDS011;45812;53.540;9.774;2023-05-10T13:13:13;6.95;;;4.85;;
59950;SDS011;45812;53.540;9.774;2023-05-10T13:15:39;5.97;;;4.32;;
59950;SDS011;45812;53.540;9.774;2023-05-10T13:18:04;6.57;;;4.50;;
59950;SDS011;45812;53.540;9.774;2023-05-10T13:20:29;9.00;;;4.80;;
59950;SDS011;45812;53.540;9.774;2023-05-10T13:22:55;8.20;;;4.80;;
59950;SDS011;45812;53.540;9.774;2023-05-10T13:25:20;8.90;;;6.10;;
59950;SDS011;45812;53.540;9.774;2023-05-10T13:27:45;12.43;;;5.15;;
59950;SDS011;45812;53.540;9.774;2023-05-10T13:30:11;6.97;;;4.80;;
59950;SDS011;45812;53.540;9.774;2023-05-10T13:32:36;25.25;;;12.73;;
59950;SDS011;45812;53.540;9.774;2023-05-10T13:35:02;25.38;;;15.88;;
59950;SDS011;45812;53.540;9.774;2023-05-10T13:37:28;8.57;;;6.03;;
59950;SDS011;45812;53.540;9.774;2023-05-10T13:39:54;7.40;;;4.93;;
59950;SDS011;45812;53.540;9.774;2023-05-10T13:42:20;17.25;;;9.23;;
59950;SDS011;45812;53.540;9.774;2023-05-10T13:44:45;9.27;;;5.93;;
59950;SDS011;45812;53.540;9.774;2023-05-10T13:47:10;28.73;;;16.30;;
59950;SDS011;45812;53.540;9.774;2023-05-10T13:49:36;25.77;;;13.65;;
59950;SDS011;45812;53.540;9.774;2023-05-10T13:52:01;19.20;;;9.82;;
59950;SDS011;45812;53.540;9.774;2023-05-10T13:54:31;10.10;;;6.25;;
59950;SDS011;45812;53.540;9.774;2023-05-10T13:56:57;9.27;;;5.68;;
59950;SDS011;45812;53.540;9.774;2023-05-10T13:59:22;11.87;;;7.83;;
59950;SDS011;45812;53.540;9.774;2023-05-10T14:01:47;14.88;;;9.25;;
59950;SDS011;45812;53.540;9.774;2023-05-10T14:04:13;9.43;;;5.95;;
59950;SDS011;45812;53.540;9.774;2023-05-10T14:06:38;9.53;;;5.73;;
59950;SDS011;45812;53.540;9.774;2023-05-10T14:09:03;22.60;;;9.97;;
59950;SDS011;45812;53.540;9.774;2023-05-10T14:11:28;19.70;;;10.37;;
59950;SDS011;45812;53.540;9.774;2023-05-10T14:13:54;14.48;;;8.05;;
59950;SDS011;45812;53.540;9.774;2023-05-10T14:16:19;11.07;;;5.67;;
59950;SDS011;45812;53.540;9.774;2023-05-10T14:18:45;7.65;;;5.38;;
59950;SDS011;45812;53.540;9.774;2023-05-10T14:21:10;18.70;;;9.38;;
59950;SDS011;45812;53.540;9.774;2023-05-10T14:23:36;12.10;;;6.90;;
59950;SDS011;45812;53.540;9.774;2023-05-10T14:26:01;10.20;;;6.73;;
59950;SDS011;45812;53.540;9.774;2023-05-10T14:28:27;9.23;;;4.90;;
59950;SDS011;45812;53.540;9.774;2023-05-10T14:30:53;6.18;;;5.10;;
59950;SDS011;45812;53.540;9.774;2023-05-10T14:33:18;7.72;;;5.15;;
59950;SDS011;45812;53.540;9.774;2023-05-10T14:35:44;6.53;;;4.70;;
59950;SDS011;45812;53.540;9.774;2023-05-10T14:38:10;6.57;;;5.13;;
59950;SDS011;45812;53.540;9.774;2023-05-10T14:40:36;7.30;;;4.88;;
59950;SDS011;45812;53.540;9.774;2023-05-10T14:43:01;6.93;;;4.45;;
59950;SDS011;45812;53.540;9.774;2023-05-10T14:45:26;6.57;;;4.82;;
59950;SDS011;45812;53.540;9.774;2023-05-10T14:47:52;6.00;;;4.75;;
59950;SDS011;45812;53.540;9.774;2023-05-10T14:50:17;7.23;;;4.53;;
59950;SDS011;45812;53.540;9.774;2023-05-10T14:52:43;8.45;;;4.85;;
59950;SDS011;45812;53.540;9.774;2023-05-10T14:55:08;5.70;;;4.63;;
59950;SDS011;45812;53.540;9.774;2023-05-10T14:57:33;6.47;;;4.78;;
59950;SDS011;45812;53.540;9.774;2023-05-10T14:59:59;8.32;;;4.57;;
59950;SDS011;45812;53.540;9.774;2023-05-10T15:02:24;5.90;;;4.70;;
59950;SDS011;45812;53.540;9.774;2023-05-10T15:04:50;7.25;;;4.82;;